createdAt,value
2018-08-30T00:02:19.774Z,5.63
2018-08-30T00:04:51.274Z,5.97
2018-08-30T00:07:21.050Z,5.50
2018-08-30T00:09:50.851Z,4.70
2018-08-30T00:12:20.691Z,6.60
2018-08-30T00:14:50.705Z,5.10
2018-08-30T00:17:20.481Z,5.90
2018-08-30T00:19:50.293Z,4.80
2018-08-30T00:22:20.078Z,7.90
2018-08-30T00:24:49.861Z,5.03
2018-08-30T00:27:19.672Z,5.40
2018-08-30T00:29:49.505Z,4.80
2018-08-30T00:32:19.341Z,4.63
2018-08-30T00:34:49.078Z,5.80
2018-08-30T00:37:18.825Z,4.20
2018-08-30T00:39:48.674Z,4.83
2018-08-30T00:42:18.477Z,5.60
2018-08-30T00:44:48.295Z,4.83
2018-08-30T00:47:20.805Z,4.70
2018-08-30T00:49:51.209Z,4.80
2018-08-30T00:52:20.873Z,5.30
2018-08-30T00:54:50.277Z,5.67
2018-08-30T00:57:19.726Z,6.20
2018-08-30T00:59:49.101Z,7.33
2018-08-30T01:02:18.520Z,6.17
2018-08-30T01:04:48.126Z,7.10
2018-08-30T01:07:17.957Z,8.70
2018-08-30T01:09:47.802Z,8.67
2018-08-30T01:12:17.637Z,8.57
2018-08-30T01:14:47.474Z,11.77
2018-08-30T01:17:17.252Z,10.53
2018-08-30T01:19:47.091Z,12.80
2018-08-30T01:22:16.848Z,13.83
2018-08-30T01:24:47.251Z,13.00
2018-08-30T01:27:16.941Z,13.43
2018-08-30T01:29:46.750Z,15.03
2018-08-30T01:32:16.629Z,13.63
2018-08-30T01:34:46.420Z,14.23
2018-08-30T01:37:16.243Z,13.13
2018-08-30T01:39:46.060Z,13.47
2018-08-30T01:42:15.863Z,13.33
2018-08-30T01:44:45.647Z,13.13
2018-08-30T01:47:15.493Z,12.67
2018-08-30T01:49:45.308Z,14.50
2018-08-30T01:52:15.160Z,15.33
2018-08-30T01:54:45.042Z,12.83
2018-08-30T01:57:14.839Z,12.87
2018-08-30T01:59:44.798Z,17.43
2018-08-30T02:02:14.531Z,14.53
2018-08-30T02:04:44.385Z,16.17
2018-08-30T02:07:14.185Z,15.53
2018-08-30T02:09:43.960Z,16.27
2018-08-30T02:12:13.698Z,15.07
2018-08-30T02:14:43.617Z,15.73
2018-08-30T02:17:13.465Z,17.00
2018-08-30T02:19:43.786Z,16.97
2018-08-30T02:22:13.563Z,16.93
2018-08-30T02:24:43.409Z,15.57
2018-08-30T02:27:13.228Z,16.47
2018-08-30T02:29:43.056Z,15.90
2018-08-30T02:32:12.905Z,14.97
2018-08-30T02:34:42.695Z,16.53
2018-08-30T02:37:12.546Z,14.87
2018-08-30T02:39:42.479Z,15.70
2018-08-30T02:42:12.324Z,17.67
2018-08-30T02:44:42.193Z,17.23
2018-08-30T02:47:12.002Z,17.77
2018-08-30T02:49:41.817Z,17.13
2018-08-30T02:52:11.666Z,20.00
2018-08-30T02:54:41.554Z,16.70
2018-08-30T02:57:11.389Z,21.40
2018-08-30T02:59:41.195Z,18.47
2018-08-30T03:02:11.038Z,20.53
2018-08-30T03:04:40.932Z,17.27
2018-08-30T03:07:10.988Z,19.70
2018-08-30T03:09:40.903Z,21.27
2018-08-30T03:12:10.796Z,19.13
2018-08-30T03:14:40.582Z,20.60
2018-08-30T03:17:10.516Z,21.83
2018-08-30T03:19:40.390Z,20.87
2018-08-30T03:22:10.240Z,23.43
2018-08-30T03:24:40.024Z,22.77
2018-08-30T03:27:09.928Z,22.57
2018-08-30T03:29:39.782Z,20.00
2018-08-30T03:32:09.657Z,21.13
2018-08-30T03:34:39.591Z,20.67
2018-08-30T03:37:09.419Z,21.57
2018-08-30T03:39:39.247Z,22.10
2018-08-30T03:42:09.085Z,25.53
2018-08-30T03:44:39.071Z,22.77
2018-08-30T03:47:08.979Z,22.60
2018-08-30T03:49:39.418Z,21.13
2018-08-30T03:52:09.424Z,23.23
2018-08-30T03:54:39.201Z,26.23
2018-08-30T03:57:09.056Z,25.10
2018-08-30T03:59:38.876Z,24.70
2018-08-30T04:02:08.667Z,25.47
2018-08-30T04:04:38.464Z,21.10
2018-08-30T04:07:08.391Z,22.83
2018-08-30T04:09:38.253Z,25.53
2018-08-30T04:12:08.111Z,23.47
2018-08-30T04:14:38.034Z,25.63
2018-08-30T04:17:07.895Z,26.07
2018-08-30T04:19:37.665Z,26.10
2018-08-30T04:22:07.537Z,26.27
2018-08-30T04:24:36.910Z,26.60
2018-08-30T04:27:06.423Z,24.13
2018-08-30T04:29:35.866Z,23.70
2018-08-30T04:32:05.446Z,24.80
2018-08-30T04:34:35.256Z,28.40
2018-08-30T04:37:05.109Z,23.23
2018-08-30T04:39:34.943Z,25.37
2018-08-30T04:42:04.862Z,26.73
2018-08-30T04:44:34.662Z,26.50
2018-08-30T04:47:04.903Z,26.47
2018-08-30T04:49:34.973Z,27.93
2018-08-30T04:52:05.056Z,25.07
2018-08-30T04:54:34.865Z,27.70
2018-08-30T04:57:04.916Z,24.10
2018-08-30T04:59:34.764Z,25.67
2018-08-30T05:02:04.670Z,25.37
2018-08-30T05:04:34.520Z,26.37
2018-08-30T05:07:04.388Z,25.23
2018-08-30T05:09:34.233Z,25.27
2018-08-30T05:12:04.277Z,25.60
2018-08-30T05:14:34.214Z,26.73
2018-08-30T05:17:04.994Z,24.10
2018-08-30T05:19:35.020Z,24.27
2018-08-30T05:22:05.568Z,25.97
2018-08-30T05:24:35.406Z,24.03
2018-08-30T05:27:05.421Z,25.67
2018-08-30T05:29:35.268Z,25.23
2018-08-30T05:32:05.222Z,25.87
2018-08-30T05:34:35.073Z,28.00
2018-08-30T05:37:05.049Z,25.00
2018-08-30T05:39:34.985Z,27.20
2018-08-30T05:42:04.943Z,25.63
2018-08-30T05:44:34.848Z,26.60
2018-08-30T05:47:04.677Z,28.57
2018-08-30T05:49:34.551Z,28.67
2018-08-30T05:52:04.439Z,25.13
2018-08-30T05:54:34.658Z,26.30
2018-08-30T05:57:04.506Z,22.43
2018-08-30T05:59:34.394Z,29.70
2018-08-30T06:02:04.306Z,25.47
2018-08-30T06:04:34.025Z,27.23
2018-08-30T06:07:03.858Z,27.70
2018-08-30T06:09:33.681Z,28.83
2018-08-30T06:12:03.550Z,24.37
2018-08-30T06:14:33.579Z,27.27
2018-08-30T06:17:03.318Z,25.93
2018-08-30T06:19:32.735Z,25.57
2018-08-30T06:22:02.126Z,23.40
2018-08-30T06:24:31.522Z,28.97
2018-08-30T06:27:01.577Z,24.73
2018-08-30T06:29:31.008Z,28.40
2018-08-30T06:32:01.130Z,24.37
2018-08-30T06:34:30.882Z,27.00
2018-08-30T06:37:00.292Z,26.07
2018-08-30T06:39:29.679Z,25.47
2018-08-30T06:41:59.098Z,23.33
2018-08-30T06:44:28.478Z,26.40
2018-08-30T06:46:57.906Z,28.43
2018-08-30T06:49:27.282Z,24.87
2018-08-30T06:51:56.714Z,22.47
2018-08-30T06:54:26.073Z,23.97
2018-08-30T06:56:55.483Z,25.50
2018-08-30T06:59:24.871Z,26.07
2018-08-30T07:01:54.283Z,25.30
2018-08-30T07:04:23.738Z,23.63
2018-08-30T07:06:53.204Z,23.17
2018-08-30T07:09:22.610Z,23.77
2018-08-30T07:11:52.079Z,22.53
2018-08-30T07:14:21.455Z,24.13
2018-08-30T07:16:50.932Z,21.27
2018-08-30T07:19:20.374Z,22.40
2018-08-30T07:21:49.837Z,21.67
2018-08-30T07:24:19.309Z,20.20
2018-08-30T07:26:48.942Z,20.70
2018-08-30T07:29:18.696Z,21.50
2018-08-30T07:31:48.593Z,18.03
2018-08-30T07:34:18.501Z,18.73
2018-08-30T07:36:48.241Z,18.17
2018-08-30T07:39:18.079Z,18.47
2018-08-30T07:41:47.880Z,17.50
2018-08-30T07:44:17.798Z,18.93
2018-08-30T07:46:47.523Z,18.23
2018-08-30T07:49:17.351Z,15.53
2018-08-30T07:51:47.221Z,14.03
2018-08-30T07:54:17.068Z,15.30
2018-08-30T07:56:46.880Z,15.17
2018-08-30T07:59:16.658Z,13.30
2018-08-30T08:01:46.526Z,13.93
2018-08-30T08:04:16.351Z,13.17
2018-08-30T08:06:46.146Z,13.83
2018-08-30T08:09:15.937Z,12.37
2018-08-30T08:11:45.812Z,12.73
2018-08-30T08:14:15.507Z,12.77
2018-08-30T08:16:45.314Z,14.37
2018-08-30T08:19:15.266Z,12.43
2018-08-30T08:21:44.992Z,14.77
2018-08-30T08:24:14.862Z,12.33
2018-08-30T08:26:44.697Z,14.03
2018-08-30T08:29:14.907Z,13.83
2018-08-30T08:31:44.774Z,11.47
2018-08-30T08:34:14.632Z,10.87
2018-08-30T08:36:44.458Z,10.13
2018-08-30T08:39:14.283Z,11.27
2018-08-30T08:41:44.066Z,9.70
2018-08-30T08:44:13.922Z,9.50
2018-08-30T08:46:44.318Z,10.30
2018-08-30T08:49:14.202Z,8.33
2018-08-30T08:51:44.091Z,11.73
2018-08-30T08:54:13.921Z,10.30
2018-08-30T08:56:43.751Z,9.77
2018-08-30T08:59:13.656Z,10.40
2018-08-30T09:01:43.474Z,8.40
2018-08-30T09:04:13.311Z,8.10
2018-08-30T09:06:43.146Z,6.30
2018-08-30T09:09:13.341Z,7.03
2018-08-30T09:11:43.414Z,6.70
2018-08-30T09:14:13.292Z,5.73
2018-08-30T09:16:43.141Z,4.57
2018-08-30T09:19:12.937Z,5.90
2018-08-30T09:21:42.736Z,6.57
2018-08-30T09:24:12.598Z,5.27
2018-08-30T09:26:42.383Z,7.27
2018-08-30T09:29:12.246Z,6.47
2018-08-30T09:31:42.066Z,6.47
2018-08-30T09:34:11.931Z,6.13
2018-08-30T09:36:41.779Z,7.40
2018-08-30T09:39:11.666Z,6.10
2018-08-30T09:41:41.540Z,6.60
2018-08-30T09:44:11.378Z,5.63
2018-08-30T09:46:41.187Z,4.30
2018-08-30T09:49:11.050Z,6.00
2018-08-30T09:51:40.837Z,8.10
2018-08-30T09:54:10.670Z,14.20
2018-08-30T09:56:41.974Z,7.23
2018-08-30T09:59:11.977Z,10.00
2018-08-30T10:01:50.363Z,6.27
2018-08-30T10:04:20.434Z,5.70
2018-08-30T10:06:50.265Z,5.27
2018-08-30T10:09:20.081Z,5.13
2018-08-30T10:11:49.947Z,3.50
2018-08-30T10:14:19.809Z,5.50
2018-08-30T10:16:49.590Z,5.17
2018-08-30T10:19:19.398Z,5.47
2018-08-30T10:21:49.674Z,4.43
2018-08-30T10:24:19.766Z,7.13
2018-08-30T10:26:49.598Z,3.93
2018-08-30T10:29:19.424Z,4.93
2018-08-30T10:31:49.210Z,4.63
2018-08-30T10:34:19.004Z,6.40
2018-08-30T10:36:48.848Z,3.53
2018-08-30T10:39:18.630Z,5.30
2018-08-30T10:41:48.406Z,5.10
2018-08-30T10:44:18.226Z,4.47
2018-08-30T10:46:48.110Z,5.63
2018-08-30T10:49:18.002Z,5.30
2018-08-30T10:51:47.726Z,5.93
2018-08-30T10:54:17.514Z,2.60
2018-08-30T10:56:47.409Z,3.93
2018-08-30T10:59:17.210Z,3.93
2018-08-30T11:01:47.147Z,2.67
2018-08-30T11:04:16.983Z,4.47
2018-08-30T11:06:46.806Z,5.83
2018-08-30T11:09:16.660Z,5.10
2018-08-30T11:11:46.581Z,3.10
2018-08-30T11:14:16.642Z,6.13
2018-08-30T11:16:46.063Z,4.87
2018-08-30T11:19:15.529Z,3.23
2018-08-30T11:21:45.011Z,5.07
2018-08-30T11:24:15.774Z,3.07
2018-08-30T11:26:45.959Z,4.47
2018-08-30T11:29:15.726Z,3.57
2018-08-30T11:31:45.593Z,3.47
2018-08-30T11:34:15.444Z,4.77
2018-08-30T11:36:45.265Z,4.57
2018-08-30T11:39:15.069Z,4.57
2018-08-30T11:41:45.043Z,4.10
2018-08-30T11:44:14.518Z,7.50
2018-08-30T11:46:43.977Z,5.03
2018-08-30T11:49:13.444Z,2.70
2018-08-30T11:51:43.184Z,3.90
2018-08-30T11:54:12.739Z,2.90
2018-08-30T11:56:42.105Z,3.50
2018-08-30T11:59:11.643Z,4.00
2018-08-30T12:01:41.209Z,5.13
2018-08-30T12:04:11.122Z,2.87
2018-08-30T12:06:40.718Z,5.90
2018-08-30T12:09:11.012Z,2.67
2018-08-30T12:11:41.924Z,3.03
2018-08-30T12:14:11.713Z,4.97
2018-08-30T12:16:41.590Z,2.07
2018-08-30T12:19:11.357Z,3.90
2018-08-30T12:21:41.210Z,2.83
2018-08-30T12:24:10.954Z,2.70
2018-08-30T12:26:40.468Z,4.43
2018-08-30T12:29:10.471Z,4.80
2018-08-30T12:31:40.529Z,6.10
2018-08-30T12:34:10.391Z,3.97
2018-08-30T12:36:40.187Z,6.57
2018-08-30T12:39:11.897Z,3.57
2018-08-30T12:41:41.788Z,4.57
2018-08-30T12:44:11.668Z,3.50
2018-08-30T12:46:41.402Z,4.10
2018-08-30T12:49:11.220Z,2.57
2018-08-30T12:51:41.218Z,2.70
2018-08-30T12:54:10.997Z,2.53
2018-08-30T12:56:40.842Z,3.80
2018-08-30T12:59:15.969Z,2.23
2018-08-30T13:01:46.169Z,3.13
2018-08-30T13:04:15.999Z,4.37
2018-08-30T13:06:49.928Z,4.40
2018-08-30T13:09:19.876Z,4.53
2018-08-30T13:11:49.800Z,2.67
2018-08-30T13:14:19.607Z,3.07
2018-08-30T13:16:49.467Z,2.77
2018-08-30T13:19:19.273Z,3.17
2018-08-30T13:21:50.833Z,3.00
2018-08-30T13:24:20.717Z,3.37
2018-08-30T13:27:14.844Z,4.50
2018-08-30T13:29:53.764Z,2.87
2018-08-30T13:32:23.665Z,2.13
2018-08-30T13:34:52.966Z,3.37
2018-08-30T13:37:23.021Z,4.80
2018-08-30T13:39:52.778Z,3.77
2018-08-30T13:42:22.593Z,2.57
2018-08-30T13:44:52.695Z,5.10
2018-08-30T13:47:22.366Z,4.37
2018-08-30T13:49:52.000Z,4.33
2018-08-30T13:52:22.100Z,4.90
2018-08-30T13:54:51.922Z,3.30
2018-08-30T13:57:21.618Z,5.57
2018-08-30T13:59:51.595Z,2.90
2018-08-30T14:02:21.362Z,2.90
2018-08-30T14:04:51.208Z,3.60
2018-08-30T14:07:21.024Z,3.30
2018-08-30T14:09:50.594Z,2.43
2018-08-30T14:12:20.222Z,3.50
2018-08-30T14:14:49.634Z,3.77
2018-08-30T14:17:19.273Z,5.30
2018-08-30T14:19:49.241Z,3.73
2018-08-30T14:22:19.228Z,3.40
2018-08-30T14:24:48.680Z,4.97
2018-08-30T14:27:18.200Z,5.37
2018-08-30T14:29:47.640Z,3.57
2018-08-30T14:32:17.142Z,3.20
2018-08-30T14:34:46.785Z,3.27
2018-08-30T14:37:16.493Z,3.13
2018-08-30T14:39:46.292Z,2.83
2018-08-30T14:42:16.248Z,3.63
2018-08-30T14:44:45.977Z,4.70
2018-08-30T14:47:15.873Z,3.03
2018-08-30T14:49:45.599Z,4.13
2018-08-30T14:52:15.429Z,2.50
2018-08-30T14:54:45.252Z,3.53
2018-08-30T14:57:15.125Z,2.60
2018-08-30T14:59:45.065Z,3.83
2018-08-30T15:02:15.170Z,3.50
2018-08-30T15:04:44.949Z,4.43
2018-08-30T15:07:14.827Z,3.50
2018-08-30T15:09:44.687Z,2.90
2018-08-30T15:12:14.396Z,2.97
2018-08-30T15:14:43.920Z,4.97
2018-08-30T15:17:13.483Z,4.40
2018-08-30T15:19:42.971Z,3.90
2018-08-30T15:22:12.405Z,4.97
2018-08-30T15:24:42.034Z,4.27
2018-08-30T15:27:11.910Z,5.23
2018-08-30T15:29:41.755Z,3.10
2018-08-30T15:32:11.686Z,3.07
2018-08-30T15:34:41.616Z,5.97
2018-08-30T15:37:11.499Z,3.60
2018-08-30T15:39:41.352Z,3.70
2018-08-30T15:42:11.223Z,4.30
2018-08-30T15:44:41.016Z,3.13
2018-08-30T15:47:10.863Z,3.23
2018-08-30T15:49:40.618Z,4.30
2018-08-30T15:52:10.381Z,4.10
2018-08-30T15:54:40.182Z,3.77
2018-08-30T15:57:10.087Z,5.67
2018-08-30T15:59:39.861Z,3.57
2018-08-30T16:02:09.403Z,4.17
2018-08-30T16:04:38.859Z,4.63
2018-08-30T16:07:08.361Z,4.13
2018-08-30T16:09:37.834Z,2.40
2018-08-30T16:12:07.542Z,4.53
2018-08-30T16:14:37.083Z,2.90
2018-08-30T16:17:06.617Z,3.37
2018-08-30T16:19:36.035Z,3.10
2018-08-30T16:22:05.488Z,5.00
2018-08-30T16:24:35.216Z,3.10
2018-08-30T16:27:05.064Z,2.97
2018-08-30T16:29:34.858Z,4.27
2018-08-30T16:32:04.678Z,3.53
2018-08-30T16:34:34.488Z,2.90
2018-08-30T16:37:04.209Z,2.87
2018-08-30T16:39:33.681Z,3.67
2018-08-30T16:42:03.162Z,2.30
2018-08-30T16:44:32.735Z,3.13
2018-08-30T16:47:02.221Z,3.27
2018-08-30T16:49:31.780Z,4.87
2018-08-30T16:52:01.248Z,2.07
2018-08-30T16:54:30.726Z,4.63
2018-08-30T16:57:00.712Z,3.03
2018-08-30T16:59:30.116Z,4.60
2018-08-30T17:01:59.722Z,3.40
2018-08-30T17:04:29.121Z,2.30
2018-08-30T17:06:58.695Z,2.90
2018-08-30T17:09:28.263Z,3.00
2018-08-30T17:11:57.921Z,2.07
2018-08-30T17:14:27.575Z,2.43
2018-08-30T17:16:57.134Z,3.67
2018-08-30T17:19:31.396Z,1.60
2018-08-30T17:22:00.842Z,2.23
2018-08-30T17:24:30.306Z,2.17
2018-08-30T17:26:59.762Z,4.57
2018-08-30T17:29:29.310Z,2.40
2018-08-30T17:31:58.724Z,2.80
2018-08-30T17:34:28.150Z,4.30
2018-08-30T17:36:57.722Z,2.37
2018-08-30T17:39:27.218Z,3.10
2018-08-30T17:41:56.665Z,2.60
2018-08-30T17:44:26.405Z,2.53
2018-08-30T17:46:56.154Z,2.57
2018-08-30T17:49:25.970Z,2.83
2018-08-30T17:51:56.136Z,2.77
2018-08-30T17:54:25.943Z,3.50
2018-08-30T17:56:55.832Z,2.10
2018-08-30T17:59:25.677Z,3.77
2018-08-30T18:01:55.632Z,2.03
2018-08-30T18:04:25.334Z,4.27
2018-08-30T18:06:55.200Z,1.77
2018-08-30T18:09:25.017Z,3.20
2018-08-30T18:11:54.850Z,1.87
2018-08-30T18:14:24.631Z,2.17
2018-08-30T18:16:54.433Z,2.00
2018-08-30T18:19:25.013Z,3.30
2018-08-30T18:21:54.767Z,2.93
2018-08-30T18:24:24.617Z,3.07
2018-08-30T18:26:54.383Z,3.60
2018-08-30T18:29:24.205Z,2.43
2018-08-30T18:31:54.019Z,3.07
2018-08-30T18:34:23.836Z,2.73
2018-08-30T18:36:53.731Z,2.73
2018-08-30T18:39:23.389Z,2.37
2018-08-30T18:41:52.899Z,1.87
2018-08-30T18:44:22.373Z,3.33
2018-08-30T18:46:51.864Z,4.10
2018-08-30T18:49:21.384Z,3.63
2018-08-30T18:51:50.862Z,2.27
2018-08-30T18:54:20.367Z,2.77
2018-08-30T18:56:49.807Z,4.03
2018-08-30T18:59:19.379Z,4.67
2018-08-30T19:01:48.960Z,4.37
2018-08-30T19:04:18.646Z,6.40
2018-08-30T19:06:48.184Z,4.07
2018-08-30T19:09:17.740Z,5.87
2018-08-30T19:11:47.784Z,4.63
2018-08-30T19:14:17.491Z,3.23
2018-08-30T19:16:52.616Z,2.97
2018-08-30T19:19:24.342Z,3.40
2018-08-30T19:21:54.371Z,2.00
2018-08-30T19:24:29.679Z,1.83
2018-08-30T19:26:59.325Z,1.67
2018-08-30T19:29:29.186Z,3.40
2018-08-30T19:31:59.042Z,4.00
2018-08-30T19:34:29.011Z,2.70
2018-08-30T19:36:59.071Z,3.90
2018-08-30T19:39:29.044Z,4.60
2018-08-30T19:41:58.887Z,2.00
2018-08-30T19:44:28.730Z,2.70
2018-08-30T19:46:58.554Z,2.93
2018-08-30T19:49:28.410Z,4.97
2018-08-30T19:51:58.320Z,3.37
2018-08-30T19:54:28.119Z,6.17
2018-08-30T19:56:58.035Z,3.13
2018-08-30T19:59:27.854Z,1.57
2018-08-30T20:01:58.719Z,3.03
2018-08-30T20:04:28.577Z,3.10
2018-08-30T20:06:58.464Z,2.83
2018-08-30T20:09:28.302Z,3.07
2018-08-30T20:11:58.137Z,2.10
2018-08-30T20:14:27.943Z,1.83
2018-08-30T20:16:57.780Z,2.73
2018-08-30T20:19:27.615Z,2.43
2018-08-30T20:21:57.503Z,3.33
2018-08-30T20:24:27.318Z,4.03
2018-08-30T20:26:57.087Z,3.97
2018-08-30T20:29:26.975Z,3.37
2018-08-30T20:31:56.832Z,2.20
2018-08-30T20:34:26.730Z,3.30
2018-08-30T20:36:56.597Z,2.50
2018-08-30T20:39:26.489Z,4.67
2018-08-30T20:41:56.596Z,3.90
2018-08-30T20:44:26.515Z,3.77
2018-08-30T20:46:56.445Z,2.97
2018-08-30T20:49:26.240Z,2.87
2018-08-30T20:51:56.063Z,3.30
2018-08-30T20:54:25.917Z,2.93
2018-08-30T20:56:55.772Z,2.57
2018-08-30T20:59:25.614Z,2.03
2018-08-30T21:01:55.585Z,2.20
2018-08-30T21:04:25.457Z,2.80
2018-08-30T21:06:55.417Z,2.97
2018-08-30T21:09:25.268Z,4.33
2018-08-30T21:11:55.053Z,3.50
2018-08-30T21:14:24.939Z,2.60
2018-08-30T21:16:54.827Z,3.20
2018-08-30T21:19:24.630Z,3.03
2018-08-30T21:21:54.441Z,2.20
2018-08-30T21:24:24.258Z,2.70
2018-08-30T21:26:54.110Z,3.03
2018-08-30T21:29:23.908Z,3.87
2018-08-30T21:31:53.727Z,2.33
2018-08-30T21:34:23.560Z,3.27
2018-08-30T21:36:53.375Z,3.37
2018-08-30T21:39:23.150Z,1.77
2018-08-30T21:41:52.961Z,4.90
2018-08-30T21:44:22.720Z,2.73
2018-08-30T21:46:52.493Z,5.33
2018-08-30T21:49:22.317Z,2.33
2018-08-30T21:51:52.483Z,4.70
2018-08-30T21:54:22.369Z,3.10
2018-08-30T21:56:52.182Z,2.17
2018-08-30T21:59:21.993Z,3.77
2018-08-30T22:01:51.791Z,2.47
2018-08-30T22:04:21.602Z,4.27
2018-08-30T22:06:51.384Z,4.27
2018-08-30T22:09:21.150Z,2.43
2018-08-30T22:11:50.931Z,3.77
2018-08-30T22:14:20.772Z,3.57
2018-08-30T22:16:50.557Z,2.50
2018-08-30T22:19:20.383Z,2.60
2018-08-30T22:21:50.210Z,2.37
2018-08-30T22:24:19.873Z,3.20
2018-08-30T22:26:49.350Z,3.13
2018-08-30T22:29:18.795Z,2.47
2018-08-30T22:31:48.219Z,4.77
2018-08-30T22:34:17.736Z,2.67
2018-08-30T22:36:47.557Z,2.73
2018-08-30T22:39:17.363Z,2.67
2018-08-30T22:41:47.144Z,3.03
2018-08-30T22:44:16.941Z,2.67
2018-08-30T22:46:46.765Z,3.37
2018-08-30T22:49:16.626Z,2.57
2018-08-30T22:51:46.406Z,3.77
2018-08-30T22:54:16.294Z,3.23
2018-08-30T22:56:46.098Z,4.40
2018-08-30T22:59:15.855Z,2.87
2018-08-30T23:01:45.678Z,4.20
2018-08-30T23:04:15.505Z,3.37
2018-08-30T23:06:45.346Z,3.07
2018-08-30T23:09:15.155Z,4.10
2018-08-30T23:11:45.008Z,2.57
2018-08-30T23:14:14.809Z,2.63
2018-08-30T23:16:44.611Z,3.30
2018-08-30T23:19:14.412Z,1.67
2018-08-30T23:21:44.256Z,3.83
2018-08-30T23:24:14.076Z,4.00
2018-08-30T23:26:43.883Z,2.17
2018-08-30T23:29:13.688Z,4.60
2018-08-30T23:31:43.552Z,2.80
2018-08-30T23:34:13.374Z,2.50
2018-08-30T23:36:43.182Z,4.03
2018-08-30T23:39:13.214Z,2.70
2018-08-30T23:41:42.998Z,2.83
2018-08-30T23:44:12.859Z,5.33
2018-08-30T23:46:42.678Z,3.17
2018-08-30T23:49:12.443Z,2.37
2018-08-30T23:51:42.259Z,4.40
2018-08-30T23:54:12.061Z,3.23
2018-08-30T23:56:41.835Z,3.83
2018-08-30T23:59:28.033Z,3.27
